Oscoda, Michigan
Current Conditions -  °F | °C
As of 10:14 AM on Wednesday 22 Oct 2014 (Local Time) from KOSC Reporting Station
Overcast Overcast  
Wind Chill:   Ceiling: 1700
Heat Index:   Visibility: 10mi
Dew Point:   Wind: 7mph
Humidity: 81%   Direction: 350°N
Pressure: 30.38"   Gusts: NA
Location:  44.42°N, 83.33°W
Report Text: KOSC 221414Z AUTO 35006KT 10SM OVC017 06/02 A3038 RMK AO2 T00600030
Loading
Personal Weather Stations






























Interactive Weather Map
Tropical Storm Tracking
New forecast layout! Learn more

10-Day Weather Forecast

Advertisements
Track Severe Weather on mobile